sensor_id;sensor_type;location;lat;lon;timestamp;temperature;humidity
24091;DHT22;12272;52.426;17.100;2022-10-14T00:00:46;18.00;99.90
24091;DHT22;12272;52.426;17.100;2022-10-14T00:05:48;17.90;99.90
24091;DHT22;12272;52.426;17.100;2022-10-14T00:10:51;18.00;99.90
24091;DHT22;12272;52.426;17.100;2022-10-14T00:15:53;17.90;99.90
24091;DHT22;12272;52.426;17.100;2022-10-14T00:20:59;17.90;99.90
24091;DHT22;12272;52.426;17.100;2022-10-14T00:26:04;17.90;99.90
24091;DHT22;12272;52.426;17.100;2022-10-14T00:31:09;17.70;99.90
24091;DHT22;12272;52.426;17.100;2022-10-14T00:36:15;17.80;99.90
24091;DHT22;12272;52.426;17.100;2022-10-14T00:41:32;17.90;99.90
24091;DHT22;12272;52.426;17.100;2022-10-14T00:46:43;17.80;99.90
24091;DHT22;12272;52.426;17.100;2022-10-14T00:51:55;17.80;99.90
24091;DHT22;12272;52.426;17.100;2022-10-14T00:57:00;17.80;99.90
24091;DHT22;12272;52.426;17.100;2022-10-14T01:02:03;17.80;99.90
24091;DHT22;12272;52.426;17.100;2022-10-14T01:12:40;17.60;99.90
24091;DHT22;12272;52.426;17.100;2022-10-14T01:34:22;17.60;99.90
24091;DHT22;12272;52.426;17.100;2022-10-14T01:39:30;17.70;99.90
24091;DHT22;12272;52.426;17.100;2022-10-14T01:44:40;17.70;99.90
24091;DHT22;12272;52.426;17.100;2022-10-14T01:49:56;17.70;99.90
24091;DHT22;12272;52.426;17.100;2022-10-14T01:55:05;17.60;99.90
24091;DHT22;12272;52.426;17.100;2022-10-14T02:00:09;17.60;99.90
24091;DHT22;12272;52.426;17.100;2022-10-14T02:05:28;17.70;99.90
24091;DHT22;12272;52.426;17.100;2022-10-14T02:10:57;17.70;99.90
24091;DHT22;12272;52.426;17.100;2022-10-14T02:16:27;17.60;99.90
24091;DHT22;12272;52.426;17.100;2022-10-14T02:21:32;17.60;99.90
24091;DHT22;12272;52.426;17.100;2022-10-14T02:26:38;17.60;99.90
24091;DHT22;12272;52.426;17.100;2022-10-14T02:31:42;17.60;99.90
24091;DHT22;12272;52.426;17.100;2022-10-14T02:36:47;17.70;99.90
24091;DHT22;12272;52.426;17.100;2022-10-14T02:41:49;17.70;99.90
24091;DHT22;12272;52.426;17.100;2022-10-14T02:46:54;17.60;99.90
24091;DHT22;12272;52.426;17.100;2022-10-14T02:51:57;17.60;99.90
24091;DHT22;12272;52.426;17.100;2022-10-14T02:57:00;17.60;99.90
24091;DHT22;12272;52.426;17.100;2022-10-14T03:02:02;17.60;99.90
24091;DHT22;12272;52.426;17.100;2022-10-14T03:07:05;17.50;99.90
24091;DHT22;12272;52.426;17.100;2022-10-14T03:12:13;17.50;99.90
24091;DHT22;12272;52.426;17.100;2022-10-14T03:17:17;17.40;99.90
24091;DHT22;12272;52.426;17.100;2022-10-14T03:22:22;17.50;99.90
24091;DHT22;12272;52.426;17.100;2022-10-14T03:27:25;17.50;99.90
24091;DHT22;12272;52.426;17.100;2022-10-14T03:32:34;17.40;99.90
24091;DHT22;12272;52.426;17.100;2022-10-14T03:38:03;17.40;99.90
24091;DHT22;12272;52.426;17.100;2022-10-14T03:43:09;17.40;99.90
24091;DHT22;12272;52.426;17.100;2022-10-14T03:48:21;17.40;99.90
24091;DHT22;12272;52.426;17.100;2022-10-14T03:53:24;17.40;99.90
24091;DHT22;12272;52.426;17.100;2022-10-14T03:58:27;17.40;99.90
24091;DHT22;12272;52.426;17.100;2022-10-14T04:03:36;17.40;99.90
24091;DHT22;12272;52.426;17.100;2022-10-14T04:08:39;17.40;99.90
24091;DHT22;12272;52.426;17.100;2022-10-14T04:14:00;17.40;99.90
24091;DHT22;12272;52.426;17.100;2022-10-14T04:19:05;17.30;99.90
24091;DHT22;12272;52.426;17.100;2022-10-14T04:24:08;17.30;99.90
24091;DHT22;12272;52.426;17.100;2022-10-14T04:29:25;16.30;99.90
24091;DHT22;12272;52.426;17.100;2022-10-14T04:34:35;16.20;99.90
24091;DHT22;12272;52.426;17.100;2022-10-14T04:39:40;16.60;99.30
24091;DHT22;12272;52.426;17.100;2022-10-14T04:44:43;16.70;98.90
24091;DHT22;12272;52.426;17.100;2022-10-14T04:49:46;16.80;98.80
24091;DHT22;12272;52.426;17.100;2022-10-14T04:54:55;16.80;98.60
24091;DHT22;12272;52.426;17.100;2022-10-14T05:00:10;17.00;98.40
24091;DHT22;12272;52.426;17.100;2022-10-14T05:05:16;17.00;98.40
24091;DHT22;12272;52.426;17.100;2022-10-14T05:10:23;17.00;98.50
24091;DHT22;12272;52.426;17.100;2022-10-14T05:15:26;17.00;98.50
24091;DHT22;12272;52.426;17.100;2022-10-14T05:20:39;17.00;98.50
24091;DHT22;12272;52.426;17.100;2022-10-14T05:25:41;17.00;98.60
24091;DHT22;12272;52.426;17.100;2022-10-14T05:30:44;17.00;98.50
24091;DHT22;12272;52.426;17.100;2022-10-14T05:35:47;17.10;98.50
24091;DHT22;12272;52.426;17.100;2022-10-14T05:41:08;17.00;98.60
24091;DHT22;12272;52.426;17.100;2022-10-14T05:46:13;17.10;98.70
24091;DHT22;12272;52.426;17.100;2022-10-14T05:51:21;17.00;98.70
24091;DHT22;12272;52.426;17.100;2022-10-14T05:56:28;17.10;98.70
24091;DHT22;12272;52.426;17.100;2022-10-14T06:01:31;17.10;98.70
24091;DHT22;12272;52.426;17.100;2022-10-14T06:06:36;17.10;98.60
24091;DHT22;12272;52.426;17.100;2022-10-14T06:11:39;17.10;98.60
24091;DHT22;12272;52.426;17.100;2022-10-14T06:16:42;17.10;98.60
24091;DHT22;12272;52.426;17.100;2022-10-14T06:21:44;17.10;98.70
24091;DHT22;12272;52.426;17.100;2022-10-14T06:26:47;17.10;98.80
24091;DHT22;12272;52.426;17.100;2022-10-14T06:31:50;17.10;98.80
24091;DHT22;12272;52.426;17.100;2022-10-14T06:36:52;17.10;98.70
24091;DHT22;12272;52.426;17.100;2022-10-14T06:42:01;17.10;98.80
24091;DHT22;12272;52.426;17.100;2022-10-14T06:47:06;17.20;98.50
24091;DHT22;12272;52.426;17.100;2022-10-14T06:52:09;17.30;98.30
24091;DHT22;12272;52.426;17.100;2022-10-14T06:57:11;17.30;98.40
24091;DHT22;12272;52.426;17.100;2022-10-14T07:02:14;17.20;98.60
24091;DHT22;12272;52.426;17.100;2022-10-14T07:07:16;17.20;98.80
24091;DHT22;12272;52.426;17.100;2022-10-14T07:12:19;17.10;98.90
24091;DHT22;12272;52.426;17.100;2022-10-14T07:17:22;17.10;99.10
24091;DHT22;12272;52.426;17.100;2022-10-14T07:22:25;17.20;98.90
24091;DHT22;12272;52.426;17.100;2022-10-14T07:27:27;17.30;98.60
24091;DHT22;12272;52.426;17.100;2022-10-14T07:32:30;17.40;98.50
24091;DHT22;12272;52.426;17.100;2022-10-14T07:37:33;17.40;98.50
24091;DHT22;12272;52.426;17.100;2022-10-14T07:42:35;17.30;98.70
24091;DHT22;12272;52.426;17.100;2022-10-14T07:47:38;17.40;98.80
24091;DHT22;12272;52.426;17.100;2022-10-14T07:52:40;17.40;98.80
24091;DHT22;12272;52.426;17.100;2022-10-14T07:57:43;17.40;98.60
24091;DHT22;12272;52.426;17.100;2022-10-14T08:02:45;17.40;98.80
24091;DHT22;12272;52.426;17.100;2022-10-14T08:07:48;17.20;99.90
24091;DHT22;12272;52.426;17.100;2022-10-14T08:12:51;17.20;99.90
24091;DHT22;12272;52.426;17.100;2022-10-14T08:17:53;17.30;99.90
24091;DHT22;12272;52.426;17.100;2022-10-14T08:22:56;17.40;99.90
24091;DHT22;12272;52.426;17.100;2022-10-14T08:27:58;17.40;99.90
24091;DHT22;12272;52.426;17.100;2022-10-14T08:33:01;17.40;99.90
24091;DHT22;12272;52.426;17.100;2022-10-14T08:38:03;17.30;99.90
24091;DHT22;12272;52.426;17.100;2022-10-14T08:43:27;17.40;99.90
24091;DHT22;12272;52.426;17.100;2022-10-14T08:48:32;17.50;99.90
24091;DHT22;12272;52.426;17.100;2022-10-14T08:53:43;17.50;99.90
24091;DHT22;12272;52.426;17.100;2022-10-14T08:58:51;17.60;99.90
24091;DHT22;12272;52.426;17.100;2022-10-14T09:04:03;17.40;99.90
24091;DHT22;12272;52.426;17.100;2022-10-14T09:14:43;17.50;99.90
24091;DHT22;12272;52.426;17.100;2022-10-14T09:19:51;17.50;99.90
24091;DHT22;12272;52.426;17.100;2022-10-14T09:24:56;17.60;99.90
24091;DHT22;12272;52.426;17.100;2022-10-14T09:30:02;17.60;99.90
24091;DHT22;12272;52.426;17.100;2022-10-14T09:35:23;17.50;99.90
24091;DHT22;12272;52.426;17.100;2022-10-14T09:40:42;17.60;99.90
24091;DHT22;12272;52.426;17.100;2022-10-14T09:46:03;17.70;99.90
24091;DHT22;12272;52.426;17.100;2022-10-14T09:56:37;17.70;99.90
24091;DHT22;12272;52.426;17.100;2022-10-14T10:01:55;17.70;99.90
24091;DHT22;12272;52.426;17.100;2022-10-14T10:07:04;15.20;99.90
24091;DHT22;12272;52.426;17.100;2022-10-14T10:12:42;15.30;99.90
24091;DHT22;12272;52.426;17.100;2022-10-14T10:17:48;15.00;99.90
24091;DHT22;12272;52.426;17.100;2022-10-14T10:22:51;15.60;99.90
24091;DHT22;12272;52.426;17.100;2022-10-14T10:27:57;17.10;99.90
24091;DHT22;12272;52.426;17.100;2022-10-14T10:38:48;17.10;99.90
24091;DHT22;12272;52.426;17.100;2022-10-14T11:00:56;17.90;99.90
24091;DHT22;12272;52.426;17.100;2022-10-14T11:06:13;17.50;99.90
24091;DHT22;12272;52.426;17.100;2022-10-14T11:11:59;17.60;99.90
24091;DHT22;12272;52.426;17.100;2022-10-14T11:27:46;17.90;99.90
24091;DHT22;12272;52.426;17.100;2022-10-14T11:38:42;18.00;99.90
24091;DHT22;12272;52.426;17.100;2022-10-14T11:43:57;17.30;99.90
24091;DHT22;12272;52.426;17.100;2022-10-14T11:54:21;17.90;99.90
24091;DHT22;12272;52.426;17.100;2022-10-14T11:59:36;18.00;99.90
24091;DHT22;12272;52.426;17.100;2022-10-14T12:05:05;18.00;99.90
24091;DHT22;12272;52.426;17.100;2022-10-14T12:10:19;18.00;99.90
24091;DHT22;12272;52.426;17.100;2022-10-14T12:15:25;18.10;99.90
24091;DHT22;12272;52.426;17.100;2022-10-14T12:26:02;18.00;99.90
24091;DHT22;12272;52.426;17.100;2022-10-14T12:31:34;18.20;99.90
24091;DHT22;12272;52.426;17.100;2022-10-14T12:36:38;18.10;99.90
24091;DHT22;12272;52.426;17.100;2022-10-14T12:41:58;17.70;99.90
24091;DHT22;12272;52.426;17.100;2022-10-14T12:47:03;17.80;99.90
24091;DHT22;12272;52.426;17.100;2022-10-14T12:52:07;17.70;99.90
24091;DHT22;12272;52.426;17.100;2022-10-14T12:57:29;17.90;99.90
24091;DHT22;12272;52.426;17.100;2022-10-14T13:02:34;18.00;99.90
24091;DHT22;12272;52.426;17.100;2022-10-14T13:07:44;18.10;99.90
24091;DHT22;12272;52.426;17.100;2022-10-14T13:12:48;18.00;99.90
24091;DHT22;12272;52.426;17.100;2022-10-14T13:17:50;18.00;99.90
24091;DHT22;12272;52.426;17.100;2022-10-14T13:22:54;17.90;99.90
24091;DHT22;12272;52.426;17.100;2022-10-14T13:28:27;17.80;99.90
24091;DHT22;12272;52.426;17.100;2022-10-14T13:33:41;17.90;99.90
24091;DHT22;12272;52.426;17.100;2022-10-14T13:38:56;18.00;99.90
24091;DHT22;12272;52.426;17.100;2022-10-14T13:44:01;17.80;99.90
24091;DHT22;12272;52.426;17.100;2022-10-14T13:49:06;17.80;99.90
24091;DHT22;12272;52.426;17.100;2022-10-14T13:59:26;17.80;99.90
24091;DHT22;12272;52.426;17.100;2022-10-14T14:04:55;17.80;99.90
24091;DHT22;12272;52.426;17.100;2022-10-14T14:10:02;17.60;99.90
24091;DHT22;12272;52.426;17.100;2022-10-14T14:15:11;17.70;99.90
24091;DHT22;12272;52.426;17.100;2022-10-14T14:20:25;17.70;99.90
24091;DHT22;12272;52.426;17.100;2022-10-14T14:25:28;17.80;99.90
24091;DHT22;12272;52.426;17.100;2022-10-14T14:30:49;17.80;99.90
24091;DHT22;12272;52.426;17.100;2022-10-14T14:35:58;17.80;99.90
24091;DHT22;12272;52.426;17.100;2022-10-14T14:41:16;16.80;99.90
24091;DHT22;12272;52.426;17.100;2022-10-14T14:46:39;15.80;99.90
24091;DHT22;12272;52.426;17.100;2022-10-14T14:51:46;15.60;99.90
24091;DHT22;12272;52.426;17.100;2022-10-14T14:56:54;15.40;99.90
24091;DHT22;12272;52.426;17.100;2022-10-14T15:01:59;15.30;99.90
24091;DHT22;12272;52.426;17.100;2022-10-14T15:07:06;15.20;99.90
24091;DHT22;12272;52.426;17.100;2022-10-14T15:12:22;15.10;99.90
24091;DHT22;12272;52.426;17.100;2022-10-14T15:22:39;15.00;99.90
24091;DHT22;12272;52.426;17.100;2022-10-14T15:27:47;15.00;99.90
24091;DHT22;12272;52.426;17.100;2022-10-14T15:32:53;14.90;99.90
24091;DHT22;12272;52.426;17.100;2022-10-14T15:37:56;14.90;99.90
24091;DHT22;12272;52.426;17.100;2022-10-14T15:42:59;16.50;99.90
24091;DHT22;12272;52.426;17.100;2022-10-14T15:48:04;17.10;99.90
24091;DHT22;12272;52.426;17.100;2022-10-14T15:53:08;17.60;99.90
24091;DHT22;12272;52.426;17.100;2022-10-14T15:58:11;17.90;99.90
24091;DHT22;12272;52.426;17.100;2022-10-14T16:03:14;18.10;99.90
24091;DHT22;12272;52.426;17.100;2022-10-14T16:08:19;18.30;99.90
24091;DHT22;12272;52.426;17.100;2022-10-14T16:13:21;18.50;99.90
24091;DHT22;12272;52.426;17.100;2022-10-14T16:18:24;18.50;99.90
24091;DHT22;12272;52.426;17.100;2022-10-14T16:23:31;18.60;99.90
24091;DHT22;12272;52.426;17.100;2022-10-14T16:28:35;18.60;99.90
24091;DHT22;12272;52.426;17.100;2022-10-14T16:33:38;18.70;99.90
24091;DHT22;12272;52.426;17.100;2022-10-14T16:38:47;18.70;99.90
24091;DHT22;12272;52.426;17.100;2022-10-14T16:43:50;18.70;99.90
24091;DHT22;12272;52.426;17.100;2022-10-14T16:48:52;18.70;99.90
24091;DHT22;12272;52.426;17.100;2022-10-14T16:53:56;18.70;99.90
24091;DHT22;12272;52.426;17.100;2022-10-14T16:59:00;18.70;99.90
24091;DHT22;12272;52.426;17.100;2022-10-14T17:04:02;18.70;99.90
24091;DHT22;12272;52.426;17.100;2022-10-14T17:09:05;18.70;99.90
24091;DHT22;12272;52.426;17.100;2022-10-14T17:14:10;18.60;99.90
24091;DHT22;12272;52.426;17.100;2022-10-14T17:19:13;18.40;99.90
24091;DHT22;12272;52.426;17.100;2022-10-14T17:24:16;18.40;99.90
24091;DHT22;12272;52.426;17.100;2022-10-14T17:29:18;18.40;99.90
24091;DHT22;12272;52.426;17.100;2022-10-14T17:34:24;18.30;99.90
24091;DHT22;12272;52.426;17.100;2022-10-14T17:39:26;18.40;99.90
24091;DHT22;12272;52.426;17.100;2022-10-14T17:44:30;18.20;99.90
24091;DHT22;12272;52.426;17.100;2022-10-14T17:49:34;18.10;99.90
24091;DHT22;12272;52.426;17.100;2022-10-14T17:54:37;17.90;99.90
24091;DHT22;12272;52.426;17.100;2022-10-14T17:59:40;18.10;99.90
24091;DHT22;12272;52.426;17.100;2022-10-14T18:04:42;18.20;99.90
24091;DHT22;12272;52.426;17.100;2022-10-14T18:09:45;18.20;99.90
24091;DHT22;12272;52.426;17.100;2022-10-14T18:14:47;18.20;99.90
24091;DHT22;12272;52.426;17.100;2022-10-14T18:19:50;18.10;99.90
24091;DHT22;12272;52.426;17.100;2022-10-14T18:24:53;18.10;99.90
24091;DHT22;12272;52.426;17.100;2022-10-14T18:29:56;13.00;99.90
24091;DHT22;12272;52.426;17.100;2022-10-14T18:34:59;12.10;99.90
24091;DHT22;12272;52.426;17.100;2022-10-14T18:40:01;12.00;99.90
24091;DHT22;12272;52.426;17.100;2022-10-14T18:45:04;11.90;99.90
24091;DHT22;12272;52.426;17.100;2022-10-14T18:50:07;11.90;99.90
24091;DHT22;12272;52.426;17.100;2022-10-14T18:55:09;12.00;99.90
24091;DHT22;12272;52.426;17.100;2022-10-14T19:00:12;11.80;99.90
24091;DHT22;12272;52.426;17.100;2022-10-14T19:05:15;11.90;99.90
24091;DHT22;12272;52.426;17.100;2022-10-14T19:10:18;12.10;99.90
24091;DHT22;12272;52.426;17.100;2022-10-14T19:15:21;11.90;99.90
24091;DHT22;12272;52.426;17.100;2022-10-14T19:20:27;12.00;99.90
24091;DHT22;12272;52.426;17.100;2022-10-14T19:25:35;11.80;99.90
24091;DHT22;12272;52.426;17.100;2022-10-14T19:30:37;11.40;99.90
24091;DHT22;12272;52.426;17.100;2022-10-14T19:35:39;11.30;99.90
24091;DHT22;12272;52.426;17.100;2022-10-14T19:40:42;11.40;99.90
24091;DHT22;12272;52.426;17.100;2022-10-14T19:45:44;11.50;99.90
24091;DHT22;12272;52.426;17.100;2022-10-14T19:50:51;11.60;99.90
24091;DHT22;12272;52.426;17.100;2022-10-14T19:56:04;11.60;99.90
24091;DHT22;12272;52.426;17.100;2022-10-14T20:01:13;11.70;99.90
24091;DHT22;12272;52.426;17.100;2022-10-14T20:06:18;11.60;99.90
24091;DHT22;12272;52.426;17.100;2022-10-14T20:11:21;11.50;99.90
24091;DHT22;12272;52.426;17.100;2022-10-14T20:16:25;11.40;99.90
24091;DHT22;12272;52.426;17.100;2022-10-14T20:21:28;11.10;99.90
24091;DHT22;12272;52.426;17.100;2022-10-14T20:26:32;10.80;99.90
24091;DHT22;12272;52.426;17.100;2022-10-14T20:31:34;10.70;99.90
24091;DHT22;12272;52.426;17.100;2022-10-14T20:36:37;10.50;99.90
24091;DHT22;12272;52.426;17.100;2022-10-14T20:41:39;10.50;99.90
24091;DHT22;12272;52.426;17.100;2022-10-14T20:46:42;10.60;99.90
24091;DHT22;12272;52.426;17.100;2022-10-14T20:51:44;10.70;99.90
24091;DHT22;12272;52.426;17.100;2022-10-14T20:56:48;10.80;99.90
24091;DHT22;12272;52.426;17.100;2022-10-14T21:01:50;10.80;99.90
24091;DHT22;12272;52.426;17.100;2022-10-14T21:06:53;10.70;99.90
24091;DHT22;12272;52.426;17.100;2022-10-14T21:11:55;10.90;99.90
24091;DHT22;12272;52.426;17.100;2022-10-14T21:16:58;11.00;99.90
24091;DHT22;12272;52.426;17.100;2022-10-14T21:22:00;11.00;99.90
24091;DHT22;12272;52.426;17.100;2022-10-14T21:27:05;11.00;99.90
24091;DHT22;12272;52.426;17.100;2022-10-14T21:32:07;11.00;99.90
24091;DHT22;12272;52.426;17.100;2022-10-14T21:37:10;10.90;99.90
24091;DHT22;12272;52.426;17.100;2022-10-14T21:42:13;10.70;99.90
24091;DHT22;12272;52.426;17.100;2022-10-14T21:47:15;10.60;99.90
24091;DHT22;12272;52.426;17.100;2022-10-14T21:52:18;10.60;99.90
24091;DHT22;12272;52.426;17.100;2022-10-14T21:57:21;10.60;99.90
24091;DHT22;12272;52.426;17.100;2022-10-14T22:02:23;10.40;99.90
24091;DHT22;12272;52.426;17.100;2022-10-14T22:07:26;10.40;99.90
24091;DHT22;12272;52.426;17.100;2022-10-14T22:12:28;10.50;99.90
24091;DHT22;12272;52.426;17.100;2022-10-14T22:17:31;10.50;99.90
24091;DHT22;12272;52.426;17.100;2022-10-14T22:22:34;10.60;99.90
24091;DHT22;12272;52.426;17.100;2022-10-14T22:27:36;10.60;99.90
24091;DHT22;12272;52.426;17.100;2022-10-14T22:32:39;10.50;99.90
24091;DHT22;12272;52.426;17.100;2022-10-14T22:37:41;10.50;99.90
24091;DHT22;12272;52.426;17.100;2022-10-14T22:42:44;10.50;99.90
24091;DHT22;12272;52.426;17.100;2022-10-14T22:47:52;10.50;99.90
24091;DHT22;12272;52.426;17.100;2022-10-14T22:52:54;10.40;99.90
24091;DHT22;12272;52.426;17.100;2022-10-14T22:57:57;10.10;99.90
24091;DHT22;12272;52.426;17.100;2022-10-14T23:02:59;10.00;99.90
24091;DHT22;12272;52.426;17.100;2022-10-14T23:08:02;9.90;99.90
24091;DHT22;12272;52.426;17.100;2022-10-14T23:13:05;9.70;99.90
24091;DHT22;12272;52.426;17.100;2022-10-14T23:18:08;9.70;99.90
24091;DHT22;12272;52.426;17.100;2022-10-14T23:23:10;9.60;99.90
24091;DHT22;12272;52.426;17.100;2022-10-14T23:28:13;9.60;99.90
24091;DHT22;12272;52.426;17.100;2022-10-14T23:33:16;9.40;99.90
24091;DHT22;12272;52.426;17.100;2022-10-14T23:38:18;9.40;99.90
24091;DHT22;12272;52.426;17.100;2022-10-14T23:43:21;9.30;99.90
24091;DHT22;12272;52.426;17.100;2022-10-14T23:48:24;9.50;99.90
24091;DHT22;12272;52.426;17.100;2022-10-14T23:53:27;9.50;99.90
24091;DHT22;12272;52.426;17.100;2022-10-14T23:58:29;9.40;99.90
